Warroad, MN (56763)

14:03 CST le 06 Mars 2015 (GMT -0600)
Warroad International-Carlson | Change Station
CLOSE
Current Station
Aéroport
Location: Warroad,
Altitude: 1073 ft
Stations météo à proximité

Alt. 1073 ft 48.94 °N, 95.35 °W | Updated 9 minutes ago

Clear
Ciel dégagé
30 ° F
Paraît 21 ° F
N
10
Vent Variable Vent de OSO
Gusts 22 mph

Aujourd'hui
Haut(e) -- | Bas -- ° F
--% Risque de précip.
Hier
Haut(e) -- | Bas -- ° F
Precip. -- pouce
6:53 AM 6:12 PM
Pleine lune, 99% visible
Pression 29.97 pouce
Visibilité 10.0 Miles terrestres
Nuages Ciel dégagé
Refroidissement éolien 21 ° F
Point de rosée 18 ° F
Humidité 60%
Précipitations 0.00 pouce
Profondeur de la couche neigeuse Non disponible.
UV 4 sur 12
Pollen .10 sur 12
Qualité de l'air Non disponible.
Flu Activity Non disponible.
METAR KRRT 061954Z AUTO 24009G19KT 10SM CLR M01/M08 A2997 RMK AO2

More Conditions Fewer Conditions

Pression 29.97 pouce
Visibilité 10.0 Miles terrestres
Nuages Ciel dégagé
Refroidissement éolien 21 ° F
Point de rosée 18 ° F
Humidité 60%
Précipitations 0.00 pouce
Profondeur de la couche neigeuse Non disponible.
UV 4 sur 12
Pollen .10 sur 12
Qualité de l'air Non disponible.
Flu Activity Non disponible.
METAR KRRT 061954Z AUTO 24009G19KT 10SM CLR M01/M08 A2997 RMK AO2

More Conditions Fewer Conditions

10-Day Weather Forecast

Almanac

Astronomie

Mar. 06, 2015 Lever Coucher
Temps réel
Crépuscule civil
Crépuscule nautique
Crépuscule astronomique
Lune
Durée de lumière visible
Longueur du jour
Tomorrow will be .
, % of the Moon is Illuminated

Extrêmes aujourd'hui

State Highs State Lows

Community

WunderPhotos

Upload Photos

1,803,386 Photos téléchargées !

WunderBlogs® & News

Nearby

Qualité de l'air

  Qualité de l'air Indice de la qualité de l'air Polluant
Not available.

Épaisseur de neige

Station Depth Altitude

Activité sismique

Ville Distance Mag. Time & Date
Minimum magnitude displayed is 2.5.

Températures des eaux côtières

Lieu Température

Stations météo à proximité